Time;durP1;ratioP1;P1;durP2;ratioP2;P2;SDS_P1;SDS_P2;PMS_P1;PMS_P2;Temp;Humidity;BMP_temperature;BMP_pressure;BME280_temperature;BME280_humidity;BME280_pressure;Samples;Min_cycle;Max_cycle;Signal;HPM_P1;HPM_P2
2022/11/01 00:01:07;;;;;;;;;;;;;;;21.48;30.21;98617.53;5056088;28;1278;-79
2022/11/01 00:03:33;;;;;;;;;;;;;;;21.18;30.74;98622.00;5055220;28;899;-79
2022/11/01 00:05:58;;;;;;;;;;;;;;;21.24;30.64;98605.31;5038505;28;825;-79
2022/11/01 00:08:23;;;;;;;;;;;;;;;21.38;30.24;98612.84;5038440;28;863;-79
2022/11/01 00:10:49;;;;;;;;;;;;;;;21.22;30.43;98619.91;5054884;28;795;-79
2022/11/01 00:13:14;;;;;;;;;;;;;;;21.00;31.06;98618.63;5055000;28;1914;-79
2022/11/01 00:15:40;;;;;;;;;;;;;;;21.13;30.62;98616.00;5054899;28;810;-78
2022/11/01 00:18:05;;;;;;;;;;;;;;;21.16;30.70;98624.47;5038745;28;968;-79
2022/11/01 00:20:31;;;;;;;;;;;;;;;21.61;30.27;98612.88;5054995;28;889;-79
2022/11/01 00:22:56;;;;;;;;;;;;;;;21.57;30.38;98614.94;5021907;28;1392;-79
2022/11/01 00:25:21;;;;;;;;;;;;;;;21.29;30.70;98602.00;5038838;28;865;-78
2022/11/01 00:27:47;;;;;;;;;;;;;;;21.30;30.70;98603.66;5038148;28;1241;-79
2022/11/01 00:30:12;;;;;;;;;;;;;;;21.17;30.68;98617.56;5038425;28;958;-79
2022/11/01 00:32:38;;;;;;;;;;;;;;;21.25;30.43;98621.09;5021579;28;1987;-79
2022/11/01 00:35:03;;;;;;;;;;;;;;;21.27;30.54;98610.94;5050086;28;898;-79
2022/11/01 00:37:29;;;;;;;;;;;;;;;21.00;31.12;98604.50;5039103;28;815;-79
2022/11/01 00:39:54;;;;;;;;;;;;;;;21.17;30.74;98603.41;5055587;28;755;-79
2022/11/01 00:42:20;;;;;;;;;;;;;;;21.18;30.64;98613.50;5072646;28;1111;-79
2022/11/01 00:44:45;;;;;;;;;;;;;;;21.39;30.92;98608.75;5040159;28;1404;-79
2022/11/01 00:47:11;;;;;;;;;;;;;;;21.51;30.55;98602.53;5058612;28;1269;-79
2022/11/01 00:49:36;;;;;;;;;;;;;;;21.27;30.69;98602.44;5059439;28;775;-79
2022/11/01 00:52:01;;;;;;;;;;;;;;;21.42;30.31;98605.88;5042976;28;1977;-79
2022/11/01 00:54:27;;;;;;;;;;;;;;;21.39;30.35;98603.09;5061171;28;716;-79
2022/11/01 00:56:52;;;;;;;;;;;;;;;21.45;30.21;98607.88;5060527;28;730;-79
2022/11/01 00:59:18;;;;;;;;;;;;;;;21.24;30.57;98596.84;5061177;28;751;-79
2022/11/01 01:01:43;;;;;;;;;;;;;;;21.20;31.05;98596.91;5060660;28;755;-79
2022/11/01 01:04:09;;;;;;;;;;;;;;;21.76;30.08;98600.06;5059787;28;759;-79
2022/11/01 01:06:34;;;;;;;;;;;;;;;21.69;30.27;98600.16;5059608;28;1294;-79
2022/11/01 01:09:00;;;;;;;;;;;;;;;21.22;30.99;98599.31;5059594;28;688;-79
2022/11/01 01:11:25;;;;;;;;;;;;;;;21.30;30.58;98604.47;5060819;28;771;-79
2022/11/01 01:13:51;;;;;;;;;;;;;;;21.23;30.64;98601.69;5060500;28;1913;-79
2022/11/01 01:16:16;;;;;;;;;;;;;;;21.13;30.79;98608.31;5042656;28;1163;-79
2022/11/01 01:18:42;;;;;;;;;;;;;;;21.28;31.01;98598.38;5060426;28;739;-79
2022/11/01 01:21:07;;;;;;;;;;;;;;;21.45;30.83;98598.56;5022225;28;1318;-79
2022/11/01 01:23:33;;;;;;;;;;;;;;;21.39;30.51;98601.06;5037985;28;873;-79
2022/11/01 01:25:58;;;;;;;;;;;;;;;21.39;30.58;98594.63;5037943;28;821;-79
2022/11/01 01:28:24;;;;;;;;;;;;;;;21.39;30.42;98600.28;5021574;28;759;-79
2022/11/01 01:30:49;;;;;;;;;;;;;;;21.31;30.48;98603.22;5038408;28;1136;-79
2022/11/01 01:33:14;;;;;;;;;;;;;;;21.12;30.92;98601.06;5021007;28;1987;-79
2022/11/01 01:35:40;;;;;;;;;;;;;;;21.28;30.72;98592.72;5038346;28;1117;-79
2022/11/01 01:38:05;;;;;;;;;;;;;;;21.29;30.82;98597.16;5038167;28;815;-79
2022/11/01 01:40:31;;;;;;;;;;;;;;;21.18;30.74;98595.72;5038194;28;1054;-79
2022/11/01 01:42:57;;;;;;;;;;;;;;;21.23;30.78;98601.69;5038018;28;1115;-79
2022/11/01 01:45:25;;;;;;;;;;;;;;;21.14;30.82;98604.28;5021847;28;827;-79
2022/11/01 01:47:51;;;;;;;;;;;;;;;21.67;30.58;98596.97;5037604;28;1060;-79
2022/11/01 01:50:27;;;;;;;;;;;;;;;21.43;30.83;98592.53;5021277;28;1195;-79
2022/11/01 01:52:52;;;;;;;;;;;;;;;21.32;30.82;98604.81;5038878;28;1984;-79
2022/11/01 01:55:23;;;;;;;;;;;;;;;21.34;30.99;98590.22;5058658;28;826;-79
2022/11/01 01:57:48;;;;;;;;;;;;;;;21.18;30.76;98605.00;5041307;28;739;-79
2022/11/01 02:00:14;;;;;;;;;;;;;;;21.22;30.73;98605.75;5041754;28;1142;-79
2022/11/01 02:02:40;;;;;;;;;;;;;;;21.25;30.55;98599.25;5058407;28;790;-79
2022/11/01 02:05:10;;;;;;;;;;;;;;;21.25;31.25;98592.78;5058815;28;755;-79
2022/11/01 02:07:35;;;;;;;;;;;;;;;21.45;30.74;98601.38;5058387;28;818;-79
2022/11/01 02:10:00;;;;;;;;;;;;;;;21.23;30.89;98600.91;5058361;28;743;-79
2022/11/01 02:12:31;;;;;;;;;;;;;;;21.16;31.02;98610.31;5041522;28;1915;-79
2022/11/01 02:14:57;;;;;;;;;;;;;;;21.06;31.11;98605.59;5059463;28;707;-79
2022/11/01 02:17:34;;;;;;;;;;;;;;;21.12;30.87;98601.06;5041728;28;767;-79
2022/11/01 02:20:00;;;;;;;;;;;;;;;21.07;30.82;98601.53;5058498;28;747;-79
2022/11/01 02:22:44;;;;;;;;;;;;;;;21.19;30.60;98606.63;5059230;28;740;-79
2022/11/01 02:25:28;;;;;;;;;;;;;;;21.38;31.18;98613.63;5059575;28;850;-79
2022/11/01 02:27:53;;;;;;;;;;;;;;;21.52;30.60;98609.78;5059484;28;719;-79
2022/11/01 02:30:22;;;;;;;;;;;;;;;21.30;30.63;98612.97;5057965;28;866;-79
2022/11/01 02:32:53;;;;;;;;;;;;;;;21.32;30.67;98604.03;5057908;28;1902;-79
2022/11/01 02:35:25;;;;;;;;;;;;;;;21.18;31.11;98613.50;5058395;28;1221;-79
2022/11/01 02:37:59;;;;;;;;;;;;;;;21.25;30.61;98601.28;5059022;28;742;-79
2022/11/01 02:40:33;;;;;;;;;;;;;;;21.00;30.95;98610.16;5041364;28;1094;-79
2022/11/01 02:43:00;;;;;;;;;;;;;;;21.07;31.17;98615.69;5057722;28;825;-79
2022/11/01 02:45:39;;;;;;;;;;;;;;;21.41;30.71;98612.00;5074593;28;1169;-79
2022/11/01 02:48:05;;;;;;;;;;;;;;;21.48;30.50;98609.81;5057177;28;1241;-79
2022/11/01 02:50:36;;;;;;;;;;;;;;;21.27;30.91;98608.09;5041026;28;740;-79
2022/11/01 02:53:01;;;;;;;;;;;;;;;21.42;30.34;98605.09;5041302;28;1979;-79
2022/11/01 02:55:30;;;;;;;;;;;;;;;21.29;30.63;98605.63;5057470;28;783;-79
2022/11/01 02:57:56;;;;;;;;;;;;;;;20.96;30.88;98612.22;5058487;28;915;-79
2022/11/01 03:00:22;;;;;;;;;;;;;;;21.12;31.09;98611.59;5040910;28;1218;-79
2022/11/01 03:02:48;;;;;;;;;;;;;;;21.37;31.08;98612.03;5036032;28;911;-79
2022/11/01 03:05:16;;;;;;;;;;;;;;;21.47;30.46;98610.25;5036575;28;821;-79
2022/11/01 03:07:42;;;;;;;;;;;;;;;21.35;30.63;98608.00;5035925;28;943;-79
2022/11/01 03:10:07;;;;;;;;;;;;;;;21.17;31.12;98620.41;5019240;28;740;-79
2022/11/01 03:12:34;;;;;;;;;;;;;;;21.17;30.61;98626.06;5036213;28;1975;-79
2022/11/01 03:15:04;;;;;;;;;;;;;;;21.26;30.47;98622.69;5036140;28;802;-79
2022/11/01 03:17:33;;;;;;;;;;;;;;;21.14;30.60;98621.25;4980486;28;816;-79
2022/11/01 03:20:00;;;;;;;;;;;;;;;21.19;30.73;98617.97;4980502;28;1116;-79
2022/11/01 03:22:30;;;;;;;;;;;;;;;21.13;30.78;98619.63;5012722;28;849;-79
2022/11/01 03:25:01;;;;;;;;;;;;;;;21.14;30.59;98615.59;5012608;28;788;-79
2022/11/01 03:27:26;;;;;;;;;;;;;;;21.63;30.39;98618.09;5012560;28;846;-79
2022/11/01 03:29:57;;;;;;;;;;;;;;;21.61;30.26;98612.06;4980598;28;1417;-79
2022/11/01 03:32:24;;;;;;;;;;;;;;;21.02;31.00;98619.00;4996640;28;1914;-79
2022/11/01 03:34:49;;;;;;;;;;;;;;;21.24;30.55;98614.66;5031009;28;783;-79
2022/11/01 03:37:15;;;;;;;;;;;;;;;21.27;30.33;98619.44;5015918;28;815;-79
2022/11/01 03:39:44;;;;;;;;;;;;;;;21.26;30.32;98617.84;4999632;28;1382;-78
2022/11/01 03:42:11;;;;;;;;;;;;;;;21.11;30.81;98622.09;5015967;28;814;-78
2022/11/01 03:44:37;;;;;;;;;;;;;;;20.89;31.26;98623.66;5012175;28;1008;-78
2022/11/01 03:47:03;;;;;;;;;;;;;;;21.09;30.70;98616.09;4995880;28;1287;-79
2022/11/01 03:49:28;;;;;;;;;;;;;;;21.02;30.84;98619.78;5050076;28;895;-79
2022/11/01 03:51:54;;;;;;;;;;;;;;;21.15;30.81;98628.53;5038249;28;2010;-79
2022/11/01 03:54:19;;;;;;;;;;;;;;;21.54;30.32;98621.47;5055258;28;800;-79
2022/11/01 03:56:45;;;;;;;;;;;;;;;21.73;30.09;98622.78;5055704;28;1253;-79
2022/11/01 03:59:10;;;;;;;;;;;;;;;21.33;30.63;98617.75;5072042;28;1254;-79
2022/11/01 04:01:35;;;;;;;;;;;;;;;21.19;30.84;98622.78;5038233;28;909;-79
2022/11/01 04:07:37;;;;;;;;;;;;;;;20.97;31.08;98619.47;5055143;28;632;-79
2022/11/01 04:10:02;;;;;;;;;;;;;;;21.32;30.86;98624.63;5054691;28;823;-79
2022/11/01 04:12:28;;;;;;;;;;;;;;;21.45;30.61;98612.72;5054747;28;1969;-79
2022/11/01 04:20:32;;;;;;;;;;;;;;;21.10;30.75;98617.69;5068053;28;813;-80
2022/11/01 04:23:02;;;;;;;;;;;;;;;21.03;31.05;98623.44;5056195;28;934;-79
2022/11/01 04:25:27;;;;;;;;;;;;;;;21.26;30.69;98623.50;5054375;28;1092;-80
2022/11/01 04:27:55;;;;;;;;;;;;;;;21.24;30.81;98627.97;5037347;28;1145;-79
2022/11/01 04:30:21;;;;;;;;;;;;;;;21.44;30.89;98628.91;5038003;28;1254;-78
2022/11/01 04:32:47;;;;;;;;;;;;;;;21.68;30.32;98628.94;5054260;28;1979;-79
2022/11/01 04:35:12;;;;;;;;;;;;;;;21.26;30.41;98631.97;5037777;28;708;-79
2022/11/01 04:37:38;;;;;;;;;;;;;;;21.18;30.79;98627.66;5037615;28;911;-78
2022/11/01 04:40:06;;;;;;;;;;;;;;;20.99;31.12;98631.97;5057784;28;1479;-79
2022/11/01 04:42:37;;;;;;;;;;;;;;;21.22;30.79;98633.25;5041316;28;1154;-79
2022/11/01 04:45:03;;;;;;;;;;;;;;;21.25;30.50;98636.06;5058264;28;1214;-78
2022/11/01 04:47:28;;;;;;;;;;;;;;;21.57;30.52;98637.59;5057643;28;1265;-79
2022/11/01 04:49:54;;;;;;;;;;;;;;;21.60;30.47;98636.72;5057717;28;862;-78
2022/11/01 04:52:19;;;;;;;;;;;;;;;21.23;30.54;98634.84;5074444;28;1986;-78
2022/11/01 04:54:45;;;;;;;;;;;;;;;21.44;30.35;98633.75;5074589;28;837;-78
2022/11/01 04:57:21;;;;;;;;;;;;;;;21.35;30.50;98637.16;5074439;28;825;-78
2022/11/01 04:59:50;;;;;;;;;;;;;;;21.33;30.26;98636.75;5059237;28;763;-78
2022/11/01 05:02:16;;;;;;;;;;;;;;;21.39;31.00;98639.91;5079509;28;800;-78
2022/11/01 05:04:41;;;;;;;;;;;;;;;21.37;30.77;98643.16;5060741;28;892;-79
2022/11/01 05:07:07;;;;;;;;;;;;;;;21.36;30.56;98650.06;5094496;28;747;-79
2022/11/01 05:09:51;;;;;;;;;;;;;;;21.28;30.54;98646.50;5044377;28;1148;-79
2022/11/01 05:12:18;;;;;;;;;;;;;;;21.31;30.30;98651.34;5093429;28;1914;-79
2022/11/01 05:14:43;;;;;;;;;;;;;;;21.37;30.44;98650.88;5076009;28;1399;-79
2022/11/01 05:17:09;;;;;;;;;;;;;;;21.19;30.79;98654.75;5047732;28;1099;-80
2022/11/01 05:19:34;;;;;;;;;;;;;;;21.22;30.79;98655.91;5065454;28;1292;-79
2022/11/01 05:22:00;;;;;;;;;;;;;;;21.19;30.71;98657.56;5041914;28;1282;-79
2022/11/01 05:24:25;;;;;;;;;;;;;;;21.19;30.65;98656.75;5057766;28;1220;-80
2022/11/01 05:26:50;;;;;;;;;;;;;;;21.61;30.57;98661.00;5040906;28;1260;-80
2022/11/01 05:29:16;;;;;;;;;;;;;;;21.61;30.37;98671.53;5035712;28;1225;-80
2022/11/01 05:31:41;;;;;;;;;;;;;;;21.54;30.30;98672.44;5054554;28;1137;-80
2022/11/01 05:34:07;;;;;;;;;;;;;;;21.29;30.72;98665.09;5024582;28;1973;-80
2022/11/01 05:36:32;;;;;;;;;;;;;;;21.18;30.84;98661.59;5018047;28;1349;-80
2022/11/01 05:38:58;;;;;;;;;;;;;;;21.23;30.78;98669.63;5018321;28;890;-80
2022/11/01 05:41:23;;;;;;;;;;;;;;;21.13;30.82;98676.22;5001456;28;860;-80
2022/11/01 05:43:49;;;;;;;;;;;;;;;21.09;30.82;98672.69;5018418;28;822;-79
2022/11/01 05:46:14;;;;;;;;;;;;;;;21.06;30.82;98674.31;5017860;28;752;-80
2022/11/01 05:48:40;;;;;;;;;;;;;;;21.61;30.41;98683.66;5001576;28;1073;-80
2022/11/01 05:51:05;;;;;;;;;;;;;;;21.62;30.35;98673.94;5001562;28;785;-80
2022/11/01 05:53:31;;;;;;;;;;;;;;;21.35;30.57;98682.44;5015531;28;1910;-80
2022/11/01 05:55:56;;;;;;;;;;;;;;;21.40;30.45;98678.31;5038179;28;1029;-80
2022/11/01 05:58:22;;;;;;;;;;;;;;;21.08;30.92;98680.34;5021195;28;1098;-80
2022/11/01 06:00:47;;;;;;;;;;;;;;;21.09;30.92;98686.81;5020742;28;1115;-80
2022/11/01 06:03:13;;;;;;;;;;;;;;;21.22;30.59;98682.19;5009731;28;1230;-80
2022/11/01 06:05:41;;;;;;;;;;;;;;;21.15;30.76;98685.13;5020910;28;1116;-80
2022/11/01 06:08:06;;;;;;;;;;;;;;;21.56;30.65;98693.44;5053264;28;946;-80
2022/11/01 06:10:32;;;;;;;;;;;;;;;21.47;30.44;98689.53;5057746;28;731;-79
2022/11/01 06:12:57;;;;;;;;;;;;;;;21.62;30.47;98695.78;5058052;28;1914;-79
2022/11/01 06:15:23;;;;;;;;;;;;;;;21.60;30.41;98693.38;5057831;28;771;-80
2022/11/01 06:17:53;;;;;;;;;;;;;;;21.48;30.86;98697.59;5059948;28;1006;-79
2022/11/01 06:20:19;;;;;;;;;;;;;;;21.08;31.32;98702.97;5077054;28;809;-79
2022/11/01 06:22:45;;;;;;;;;;;;;;;21.13;31.36;98704.53;5076932;28;797;-79
2022/11/01 06:25:11;;;;;;;;;;;;;;;21.09;31.37;98700.97;5026837;28;1224;-79
2022/11/01 06:27:36;;;;;;;;;;;;;;;21.28;30.76;98700.28;5076785;28;798;-80
2022/11/01 06:30:02;;;;;;;;;;;;;;;21.15;31.02;98702.09;5020142;28;1111;-80
2022/11/01 06:32:27;;;;;;;;;;;;;;;21.14;31.00;98709.00;5020064;28;1927;-79
2022/11/01 06:34:53;;;;;;;;;;;;;;;21.23;30.79;98699.97;5004187;28;854;-79
2022/11/01 06:37:18;;;;;;;;;;;;;;;21.19;30.87;98708.50;5020490;28;947;-80
2022/11/01 06:39:43;;;;;;;;;;;;;;;21.65;30.87;98706.25;5036473;28;956;-80
2022/11/01 06:42:09;;;;;;;;;;;;;;;21.60;30.84;98710.34;5036832;28;767;-80
2022/11/01 06:44:34;;;;;;;;;;;;;;;21.36;30.94;98717.22;5036467;28;928;-80
2022/11/01 06:47:00;;;;;;;;;;;;;;;21.51;30.84;98712.94;5036827;28;1195;-80
2022/11/01 06:49:25;;;;;;;;;;;;;;;21.40;30.77;98712.28;5020255;28;867;-79
2022/11/01 06:51:51;;;;;;;;;;;;;;;21.21;31.32;98716.56;5036753;28;838;-79
2022/11/01 06:54:16;;;;;;;;;;;;;;;21.27;30.87;98720.53;5036444;28;1914;-80
2022/11/01 06:56:42;;;;;;;;;;;;;;;21.32;30.82;98715.22;5019858;28;934;-80
2022/11/01 06:59:07;;;;;;;;;;;;;;;21.10;31.18;98728.03;5019782;28;794;-80
2022/11/01 07:01:33;;;;;;;;;;;;;;;21.26;30.86;98731.06;5046381;28;846;-80
2022/11/01 07:03:58;;;;;;;;;;;;;;;21.40;31.05;98724.44;5058309;28;759;-79
2022/11/01 07:06:27;;;;;;;;;;;;;;;21.47;31.01;98723.50;5024315;28;1574;-80
2022/11/01 07:08:53;;;;;;;;;;;;;;;21.43;30.89;98723.56;5090570;28;754;-80
2022/11/01 07:11:18;;;;;;;;;;;;;;;21.41;30.91;98725.22;5057416;28;807;-79
2022/11/01 07:13:44;;;;;;;;;;;;;;;21.43;31.12;98734.09;5057976;28;1909;-79
2022/11/01 07:16:09;;;;;;;;;;;;;;;21.25;31.05;98729.44;5090572;28;739;-80
2022/11/01 07:18:35;;;;;;;;;;;;;;;21.32;31.20;98729.38;5056625;28;751;-80
2022/11/01 07:21:01;;;;;;;;;;;;;;;21.16;31.16;98725.53;5073247;28;771;-79
2022/11/01 07:23:28;;;;;;;;;;;;;;;20.90;31.66;98735.56;5056546;28;723;-80
2022/11/01 07:25:53;;;;;;;;;;;;;;;21.10;31.57;98727.25;5052019;28;1156;-80
2022/11/01 07:28:19;;;;;;;;;;;;;;;21.36;31.04;98731.38;5035633;28;940;-80
2022/11/01 07:30:50;;;;;;;;;;;;;;;21.26;31.11;98725.38;5019374;28;1088;-80
2022/11/01 07:33:16;;;;;;;;;;;;;;;21.27;31.00;98726.97;5035168;28;1922;-79
2022/11/01 07:35:41;;;;;;;;;;;;;;;21.41;31.03;98719.56;5018755;28;1608;-80
2022/11/01 07:38:07;;;;;;;;;;;;;;;21.56;31.12;98723.78;5018839;28;1147;-79
2022/11/01 07:40:32;;;;;;;;;;;;;;;21.56;30.97;98727.41;5034665;28;744;-75
2022/11/01 07:42:58;;;;;;;;;;;;;;;21.66;30.81;98724.84;5035173;28;785;-78
2022/11/01 07:45:24;;;;;;;;;;;;;;;21.47;31.34;98726.34;5035268;28;845;-80
2022/11/01 07:47:50;;;;;;;;;;;;;;;21.39;31.43;98730.50;5019820;28;1222;-80
2022/11/01 07:50:15;;;;;;;;;;;;;;;21.36;31.53;98728.53;5069178;28;1331;-80
2022/11/01 07:52:41;;;;;;;;;;;;;;;21.16;31.49;98726.34;5071496;28;1967;-80
2022/11/01 07:55:07;;;;;;;;;;;;;;;21.47;30.96;98723.50;5054627;28;791;-79
2022/11/01 07:57:36;;;;;;;;;;;;;;;21.59;30.92;98725.75;5029382;28;1076;-80
2022/11/01 08:00:01;;;;;;;;;;;;;;;21.70;30.93;98720.72;5015328;28;934;-79
2022/11/01 08:02:27;;;;;;;;;;;;;;;21.62;30.94;98724.91;5018871;28;1308;-79
2022/11/01 08:04:53;;;;;;;;;;;;;;;21.62;30.80;98719.25;5035214;28;806;-81
2022/11/01 08:07:18;;;;;;;;;;;;;;;21.63;30.92;98720.03;5027314;28;1758;-81
2022/11/01 08:09:44;;;;;;;;;;;;;;;21.49;31.01;98715.38;5025601;28;1305;-77
2022/11/01 08:12:09;;;;;;;;;;;;;;;21.31;31.25;98722.13;5009244;28;1914;-77
2022/11/01 08:14:35;;;;;;;;;;;;;;;21.33;31.49;98719.66;5026103;28;1225;-78
2022/11/01 08:17:00;;;;;;;;;;;;;;;21.28;31.18;98714.44;4999144;28;1341;-78
2022/11/01 08:19:26;;;;;;;;;;;;;;;21.47;30.83;98709.34;5005513;28;1328;-78
2022/11/01 08:21:51;;;;;;;;;;;;;;;21.31;31.07;98710.78;5000698;28;1034;-78
2022/11/01 08:24:17;;;;;;;;;;;;;;;21.21;31.21;98708.88;4995236;28;910;-78
2022/11/01 08:26:42;;;;;;;;;;;;;;;21.07;31.43;98717.56;4992060;28;1309;-78
2022/11/01 08:29:08;;;;;;;;;;;;;;;21.20;31.25;98710.13;4990464;28;863;-79
2022/11/01 08:31:33;;;;;;;;;;;;;;;21.37;31.17;98713.16;4979228;28;1281;-79
2022/11/01 08:33:59;;;;;;;;;;;;;;;21.36;31.15;98711.56;4978827;28;1981;-79
2022/11/01 08:36:24;;;;;;;;;;;;;;;21.32;30.81;98705.94;4993195;28;1120;-79
2022/11/01 08:38:50;;;;;;;;;;;;;;;21.22;31.11;98710.47;4973546;28;1400;-79
2022/11/01 08:41:16;;;;;;;;;;;;;;;21.20;31.03;98704.44;4957468;28;1212;-79
2022/11/01 08:43:41;;;;;;;;;;;;;;;21.36;30.63;98708.72;5002064;28;1280;-79
2022/11/01 08:46:08;;;;;;;;;;;;;;;20.83;31.67;98702.53;4996721;28;1286;-79
2022/11/01 08:48:34;;;;;;;;;;;;;;;21.06;31.34;98707.47;4996485;28;1278;-79
2022/11/01 08:51:00;;;;;;;;;;;;;;;21.30;31.03;98709.19;5012790;28;1233;-79
2022/11/01 08:53:25;;;;;;;;;;;;;;;21.55;31.17;98710.84;4996243;28;1974;-79
2022/11/01 08:55:54;;;;;;;;;;;;;;;21.57;31.96;98700.69;5012719;28;1294;-79
2022/11/01 08:58:20;;;;;;;;;;;;;;;21.48;32.07;98713.78;4993973;28;1261;-79
2022/11/01 09:00:45;;;;;;;;;;;;;;;21.13;32.11;98706.56;4980157;28;1243;-78
2022/11/01 09:03:11;;;;;;;;;;;;;;;21.28;31.69;98703.09;5016648;28;1250;-78
2022/11/01 09:05:36;;;;;;;;;;;;;;;21.21;32.07;98706.06;5056691;28;1464;-78
2022/11/01 09:08:02;;;;;;;;;;;;;;;21.27;31.79;98706.38;5057214;28;1071;-78
2022/11/01 09:10:29;;;;;;;;;;;;;;;21.30;31.27;98703.53;5071118;28;1105;-79
2022/11/01 09:12:55;;;;;;;;;;;;;;;21.38;31.02;98698.56;5059071;28;1973;-78
2022/11/01 09:19:00;;;;;;;;;;;;;;;21.10;31.65;98711.06;5068555;28;1102;-78
2022/11/01 09:21:26;;;;;;;;;;;;;;;21.28;31.31;98703.09;5067327;28;1414;-79
2022/11/01 09:23:52;;;;;;;;;;;;;;;21.12;32.00;98694.44;5035511;28;1222;-78
2022/11/01 09:26:17;;;;;;;;;;;;;;;21.06;32.07;98693.31;5049962;28;1260;-79
2022/11/01 09:28:43;;;;;;;;;;;;;;;21.06;31.56;98688.47;5069825;28;1229;-79
2022/11/01 09:31:10;;;;;;;;;;;;;;;21.33;31.14;98699.84;5074124;28;1259;-79
2022/11/01 09:33:35;;;;;;;;;;;;;;;21.10;31.55;98694.09;5079799;28;1957;-79
2022/11/01 09:36:01;;;;;;;;;;;;;;;21.13;31.38;98693.22;5078953;28;830;-79
2022/11/01 09:38:26;;;;;;;;;;;;;;;21.12;31.41;98691.63;5078543;28;900;-79
2022/11/01 09:40:58;;;;;;;;;;;;;;;21.50;31.77;98688.66;5078696;28;833;-79
2022/11/01 09:43:23;;;;;;;;;;;;;;;21.40;32.35;98689.63;5078597;28;695;-79
2022/11/01 09:45:50;;;;;;;;;;;;;;;21.54;32.08;98689.41;5078642;28;683;-79
2022/11/01 09:48:15;;;;;;;;;;;;;;;21.38;32.06;98687.22;5072322;28;1054;-79
2022/11/01 09:50:44;;;;;;;;;;;;;;;21.17;31.96;98685.47;5069742;28;1274;-79
2022/11/01 09:53:13;;;;;;;;;;;;;;;21.14;32.23;98683.53;5051473;28;1986;-79
2022/11/01 09:55:44;;;;;;;;;;;;;;;21.08;32.13;98691.66;5061347;28;1182;-79
2022/11/01 09:58:29;;;;;;;;;;;;;;;21.44;31.43;98687.56;5074574;28;1079;-79
2022/11/01 10:01:09;;;;;;;;;;;;;;;21.24;31.88;98685.41;5080054;28;699;-79
2022/11/01 10:04:04;;;;;;;;;;;;;;;21.16;31.96;98686.72;5079145;28;731;-79
2022/11/01 10:06:34;;;;;;;;;;;;;;;21.04;32.14;98678.81;5056307;28;986;-79
2022/11/01 10:09:03;;;;;;;;;;;;;;;21.26;31.63;98680.09;5039833;28;756;-79
2022/11/01 10:11:40;;;;;;;;;;;;;;;21.15;31.89;98673.81;5040086;28;868;-79
2022/11/01 10:14:08;;;;;;;;;;;;;;;21.04;31.93;98675.97;5040279;28;1910;-79
2022/11/01 10:16:35;;;;;;;;;;;;;;;20.96;31.90;98678.09;5014885;28;1477;-79
2022/11/01 10:19:04;;;;;;;;;;;;;;;20.96;31.90;98677.28;5000755;28;1129;-79
2022/11/01 10:21:41;;;;;;;;;;;;;;;21.20;31.42;98678.19;5000965;28;696;-79
2022/11/01 10:24:12;;;;;;;;;;;;;;;21.08;31.62;98673.88;4977775;28;987;-79
2022/11/01 10:26:43;;;;;;;;;;;;;;;21.45;32.03;98675.00;4961838;28;931;-79
2022/11/01 10:29:11;;;;;;;;;;;;;;;21.68;31.76;98672.22;4959636;28;1199;-79
2022/11/01 10:31:40;;;;;;;;;;;;;;;21.48;31.80;98674.16;4964586;28;1148;-79
2022/11/01 10:34:14;;;;;;;;;;;;;;;21.28;32.11;98671.19;4994557;28;1910;-79
2022/11/01 10:36:43;;;;;;;;;;;;;;;21.07;32.49;98666.63;4977943;28;875;-79
2022/11/01 10:39:27;;;;;;;;;;;;;;;21.44;31.62;98665.69;4962536;28;836;-79
2022/11/01 10:41:53;;;;;;;;;;;;;;;21.16;31.98;98658.41;4979319;28;912;-79
2022/11/01 10:44:18;;;;;;;;;;;;;;;21.26;31.84;98656.66;4980891;28;803;-79
2022/11/01 10:46:44;;;;;;;;;;;;;;;21.20;31.83;98656.34;4997100;28;1261;-79
2022/11/01 10:49:30;;;;;;;;;;;;;;;21.33;31.63;98651.72;4938801;29;915;-79
2022/11/01 10:51:57;;;;;;;;;;;;;;;21.36;31.65;98649.28;4923528;29;1195;-79
2022/11/01 10:54:24;;;;;;;;;;;;;;;21.28;31.54;98643.66;4948162;28;1907;-79
2022/11/01 10:56:50;;;;;;;;;;;;;;;21.10;32.07;98643.16;4945781;28;1303;-79
2022/11/01 10:59:17;;;;;;;;;;;;;;;21.19;31.75;98640.59;4966850;28;1111;-79
2022/11/01 11:01:43;;;;;;;;;;;;;;;21.25;31.72;98638.88;5033241;28;763;-79
2022/11/01 11:04:14;;;;;;;;;;;;;;;21.19;31.60;98631.28;5016600;28;1587;-79
2022/11/01 11:06:41;;;;;;;;;;;;;;;21.36;31.35;98637.94;5019447;28;1217;-79
2022/11/01 11:09:06;;;;;;;;;;;;;;;21.24;31.72;98631.63;5019356;28;1159;-80
2022/11/01 11:11:36;;;;;;;;;;;;;;;21.07;31.79;98627.00;5019590;28;964;-79
2022/11/01 11:14:03;;;;;;;;;;;;;;;21.18;31.55;98630.47;5019285;28;1970;-80
2022/11/01 11:16:30;;;;;;;;;;;;;;;21.22;31.52;98628.41;5002485;28;1258;-79
2022/11/01 11:19:00;;;;;;;;;;;;;;;21.37;31.14;98633.88;5002238;28;1261;-80
2022/11/01 11:21:25;;;;;;;;;;;;;;;21.32;31.97;98616.16;5054808;28;1053;-80
2022/11/01 11:23:51;;;;;;;;;;;;;;;21.38;32.66;98618.50;5038896;28;763;-79
2022/11/01 11:26:17;;;;;;;;;;;;;;;21.56;32.38;98610.53;5038130;28;902;-79
2022/11/01 11:28:49;;;;;;;;;;;;;;;21.33;32.64;98614.13;5018769;28;1237;-79
2022/11/01 11:31:25;;;;;;;;;;;;;;;21.34;32.14;98610.06;5018726;28;911;-79
2022/11/01 11:33:52;;;;;;;;;;;;;;;21.35;31.83;98622.16;5002776;28;1891;-79
2022/11/01 11:36:24;;;;;;;;;;;;;;;21.24;31.92;98614.66;5018982;28;889;-79
2022/11/01 11:38:50;;;;;;;;;;;;;;;21.24;32.01;98623.13;5015399;28;855;-79
2022/11/01 11:41:28;;;;;;;;;;;;;;;21.17;32.28;98609.06;5032060;28;1213;-79
2022/11/01 11:43:54;;;;;;;;;;;;;;;21.21;31.92;98614.69;5015172;28;896;-80
2022/11/01 11:46:23;;;;;;;;;;;;;;;21.39;31.77;98605.94;5032103;28;1135;-79
2022/11/01 11:48:51;;;;;;;;;;;;;;;21.30;31.78;98607.28;4998733;28;1125;-80
2022/11/01 11:51:17;;;;;;;;;;;;;;;21.25;31.87;98604.91;5015992;28;863;-80
2022/11/01 11:53:42;;;;;;;;;;;;;;;20.98;32.19;98607.72;5036880;28;1969;-79
2022/11/01 11:56:08;;;;;;;;;;;;;;;21.33;31.73;98595.09;5036735;28;826;-80
2022/11/01 11:58:35;;;;;;;;;;;;;;;21.31;31.50;98603.22;5036857;28;834;-80
2022/11/01 12:01:01;;;;;;;;;;;;;;;21.51;31.29;98605.34;5038258;28;1171;-80
2022/11/01 12:03:27;;;;;;;;;;;;;;;21.52;32.21;98589.97;5036461;28;1127;-80
2022/11/01 12:05:56;;;;;;;;;;;;;;;21.52;32.42;98598.44;5070197;28;971;-80
2022/11/01 12:08:34;;;;;;;;;;;;;;;21.31;32.43;98608.88;5037368;28;948;-79
2022/11/01 12:10:59;;;;;;;;;;;;;;;21.28;32.25;98604.03;5054744;28;744;-79
2022/11/01 12:13:25;;;;;;;;;;;;;;;21.29;32.29;98599.19;5021186;28;1913;-80
2022/11/01 12:16:04;;;;;;;;;;;;;;;21.14;32.45;98604.28;5053931;28;735;-79
2022/11/01 12:18:30;;;;;;;;;;;;;;;21.42;31.92;98605.09;5037726;28;830;-79
2022/11/01 12:20:55;;;;;;;;;;;;;;;21.32;31.94;98604.81;5071049;28;807;-80
2022/11/01 12:23:34;;;;;;;;;;;;;;;21.26;32.30;98600.84;5054432;28;834;-80
2022/11/01 12:26:01;;;;;;;;;;;;;;;21.06;32.37;98602.78;5037776;28;860;-80
2022/11/01 12:28:29;;;;;;;;;;;;;;;21.20;31.96;98602.56;5021839;28;1197;-80
2022/11/01 12:30:55;;;;;;;;;;;;;;;21.26;32.08;98600.06;5037914;28;802;-80
2022/11/01 12:33:31;;;;;;;;;;;;;;;21.09;32.19;98604.78;5021488;28;1973;-78
2022/11/01 12:35:56;;;;;;;;;;;;;;;21.03;32.44;98598.75;5055378;28;747;-78
2022/11/01 12:38:28;;;;;;;;;;;;;;;21.27;31.69;98602.44;5038724;28;1115;-79
2022/11/01 12:40:53;;;;;;;;;;;;;;;21.25;31.58;98599.25;5056545;28;746;-78
2022/11/01 12:43:22;;;;;;;;;;;;;;;21.19;31.61;98602.97;5056204;28;826;-79
2022/11/01 12:45:51;;;;;;;;;;;;;;;21.40;32.40;98601.88;5037546;28;1166;-78
2022/11/01 12:48:21;;;;;;;;;;;;;;;21.43;32.60;98604.66;5020827;28;1353;-79
2022/11/01 12:50:51;;;;;;;;;;;;;;;21.54;32.07;98605.28;5054100;28;1250;-78
2022/11/01 12:53:18;;;;;;;;;;;;;;;21.47;32.31;98604.59;4997837;28;1902;-78
2022/11/01 12:55:44;;;;;;;;;;;;;;;21.36;32.03;98598.31;4998115;28;1250;-78
2022/11/01 12:58:18;;;;;;;;;;;;;;;21.37;31.87;98597.09;4998008;28;897;-81
2022/11/01 13:00:44;;;;;;;;;;;;;;;21.06;32.53;98608.44;4998155;28;799;-80
2022/11/01 13:03:15;;;;;;;;;;;;;;;21.34;31.84;98598.72;4997993;28;1277;-79
2022/11/01 13:05:59;;;;;;;;;;;;;;;21.29;31.92;98602.00;4956264;29;1325;-78
2022/11/01 13:08:27;;;;;;;;;;;;;;;21.14;32.23;98601.47;4956390;29;973;-78
2022/11/01 13:10:52;;;;;;;;;;;;;;;21.49;32.37;98602.13;4955825;29;958;-79
2022/11/01 13:13:23;;;;;;;;;;;;;;;21.49;32.55;98596.47;4939768;29;1907;-78
2022/11/01 13:15:55;;;;;;;;;;;;;;;21.58;32.25;98605.22;4957704;28;806;-78